Time;durP1;ratioP1;P1;durP2;ratioP2;P2;SDS_P1;SDS_P2;PMS_P1;PMS_P2;Temp;Humidity;BMP_temperature;BMP_pressure;BME280_temperature;BME280_humidity;BME280_pressure;Samples;Min_cycle;Max_cycle;Signal;HPM_P1;HPM_P2
2021/03/31 00:00:30;;;;;;;42.00;38.95;;;20.60;99.90;;;;;;5096420;28;20031;-65
2021/03/31 00:03:04;;;;;;;39.90;37.40;;;20.90;99.90;;;;;;5096441;28;20026;-65
2021/03/31 00:05:31;;;;;;;36.72;34.33;;;20.90;99.90;;;;;;5096223;28;20036;-64
2021/03/31 00:07:59;;;;;;;36.97;34.60;;;21.10;99.90;;;;;;5096391;28;20025;-64
2021/03/31 00:10:31;;;;;;;34.30;32.10;;;21.30;99.90;;;;;;5096201;28;20044;-63
2021/03/31 00:12:59;;;;;;;33.13;31.30;;;21.20;99.90;;;;;;5096281;28;20095;-64
2021/03/31 00:15:26;;;;;;;30.55;28.75;;;21.30;99.90;;;;;;5096898;28;20016;-63
2021/03/31 00:17:54;;;;;;;29.98;27.70;;;21.30;99.90;;;;;;5096129;28;20024;-64
2021/03/31 00:20:21;;;;;;;30.02;28.08;;;21.40;99.90;;;;;;5095961;28;20111;-64
2021/03/31 00:22:49;;;;;;;27.60;25.50;;;21.70;99.90;;;;;;5096015;28;20012;-64
2021/03/31 00:25:18;;;;;;;25.02;23.55;;;21.80;99.90;;;;;;5095927;28;20020;-64
2021/03/31 00:27:45;;;;;;;24.35;22.40;;;21.70;99.90;;;;;;5095791;28;20028;-64
2021/03/31 00:30:15;;;;;;;24.08;22.17;;;21.80;99.90;;;;;;5095808;28;20020;-64
2021/03/31 00:32:43;;;;;;;22.88;21.17;;;22.10;99.90;;;;;;5095882;28;20028;-64
2021/03/31 00:35:11;;;;;;;20.48;19.02;;;22.10;99.90;;;;;;5094491;28;20031;-65
2021/03/31 00:37:39;;;;;;;18.88;17.20;;;22.00;99.90;;;;;;5095911;28;20020;-65
2021/03/31 00:40:10;;;;;;;19.90;18.15;;;22.00;99.90;;;;;;5095420;28;20071;-65
2021/03/31 00:42:38;;;;;;;19.73;18.02;;;22.20;99.90;;;;;;5094340;28;20031;-64
2021/03/31 00:45:08;;;;;;;17.95;16.48;;;22.40;99.90;;;;;;5095650;28;20070;-64
2021/03/31 00:47:36;;;;;;;16.05;14.63;;;22.30;99.90;;;;;;5095487;28;20032;-63
2021/03/31 00:50:06;;;;;;;16.17;14.00;;;22.20;99.90;;;;;;5094786;28;20444;-63
2021/03/31 00:52:34;;;;;;;14.50;13.30;;;22.10;99.90;;;;;;5095488;28;20016;-64
2021/03/31 00:55:01;;;;;;;16.05;14.55;;;22.20;99.90;;;;;;5095416;28;20073;-64
2021/03/31 00:57:28;;;;;;;13.68;12.30;;;22.40;99.90;;;;;;5095328;28;20024;-63
2021/03/31 00:59:56;;;;;;;12.35;11.23;;;22.40;99.90;;;;;;5095214;28;20032;-64
2021/03/31 01:02:23;;;;;;;12.63;11.35;;;22.30;99.90;;;;;;5095196;28;20024;-64
2021/03/31 01:04:50;;;;;;;13.02;11.15;;;22.50;99.90;;;;;;5095230;28;20054;-64
2021/03/31 01:07:18;;;;;;;12.18;11.00;;;22.40;99.90;;;;;;5095115;28;20381;-64
2021/03/31 01:09:45;;;;;;;11.98;10.82;;;22.60;99.90;;;;;;5095067;28;20040;-64
2021/03/31 01:12:41;;;;;;;12.90;11.63;;;22.20;99.90;;;;;;5094626;28;20028;-64
2021/03/31 01:15:52;;;;;;;11.45;10.55;;;22.50;99.90;;;;;;5094889;28;20017;-63
2021/03/31 01:18:28;;;;;;;12.63;10.30;;;23.00;99.90;;;;;;5091116;28;20520;-64
2021/03/31 01:21:26;;;;;;;10.80;9.82;;;22.60;99.90;;;;;;5094700;28;20364;-65
2021/03/31 01:24:11;;;;;;;11.48;10.32;;;22.30;99.90;;;;;;5094657;28;20039;-62
2021/03/31 01:27:13;;;;;;;11.40;9.90;;;22.90;99.90;;;;;;5093244;28;20028;-63
2021/03/31 01:30:04;;;;;;;10.70;9.75;;;22.80;99.90;;;;;;5094038;28;20028;-64
2021/03/31 01:32:34;;;;;;;10.93;9.88;;;23.10;99.90;;;;;;5094568;28;20019;-63
2021/03/31 01:35:16;;;;;;;11.20;10.07;;;23.20;99.90;;;;;;5095038;28;20070;-64
2021/03/31 01:37:56;;;;;;;11.75;9.60;;;23.60;99.90;;;;;;5094590;28;20024;-63
2021/03/31 01:40:26;;;;;;;11.85;8.98;;;23.20;99.90;;;;;;5094351;28;20113;-64
2021/03/31 01:43:09;;;;;;;9.55;8.63;;;23.10;99.90;;;;;;5094539;28;20443;-64
2021/03/31 01:45:39;;;;;;;8.70;7.90;;;22.30;99.90;;;;;;5094447;28;20045;-64
2021/03/31 01:48:16;;;;;;;11.70;8.02;;;22.30;99.90;;;;;;5092990;28;20027;-64
2021/03/31 01:50:47;;;;;;;11.35;10.30;;;22.60;99.90;;;;;;5094543;28;20401;-63
2021/03/31 01:53:16;;;;;;;12.65;10.40;;;23.00;99.90;;;;;;5094160;28;20042;-64
2021/03/31 01:55:44;;;;;;;11.73;10.63;;;22.90;99.90;;;;;;5094435;28;20052;-64
2021/03/31 01:58:14;;;;;;;14.52;11.45;;;23.30;99.90;;;;;;5094049;28;20020;-64
2021/03/31 02:00:41;;;;;;;11.20;10.30;;;23.10;99.90;;;;;;5093856;28;20035;-64
2021/03/31 02:03:09;;;;;;;10.02;9.23;;;22.80;99.90;;;;;;5093424;28;20020;-63
2021/03/31 02:05:38;;;;;;;12.45;10.55;;;22.50;99.90;;;;;;5093799;28;20035;-64
2021/03/31 02:08:06;;;;;;;10.98;9.88;;;22.50;99.90;;;;;;5093968;28;20020;-63
2021/03/31 02:10:34;;;;;;;13.90;9.95;;;22.70;99.90;;;;;;5093919;28;20366;-63
2021/03/31 02:13:03;;;;;;;11.63;9.10;;;22.90;99.90;;;;;;5093883;28;20023;-64
2021/03/31 02:15:32;;;;;;;11.32;10.32;;;23.20;99.90;;;;;;5094387;28;20024;-63
2021/03/31 02:18:01;;;;;;;10.60;9.70;;;23.30;99.90;;;;;;5093888;28;20069;-63
2021/03/31 02:20:29;;;;;;;10.95;9.95;;;23.60;99.90;;;;;;5093689;28;20439;-63
2021/03/31 02:22:59;;;;;;;10.68;9.73;;;23.90;99.90;;;;;;5075747;28;20516;-63
2021/03/31 02:25:27;;;;;;;12.40;10.52;;;23.90;99.90;;;;;;5093558;28;20100;-62
2021/03/31 02:27:54;;;;;;;10.75;9.95;;;24.20;99.90;;;;;;5093552;28;20017;-62
2021/03/31 02:30:24;;;;;;;8.50;6.57;;;24.30;99.50;;;;;;5093479;28;20035;-62
2021/03/31 02:32:54;;;;;;;7.15;6.40;;;24.40;99.90;;;;;;5094142;28;20026;-63
2021/03/31 02:35:24;;;;;;;10.38;9.27;;;24.30;99.90;;;;;;5093552;28;20337;-62
2021/03/31 02:38:06;;;;;;;7.97;6.20;;;23.90;99.90;;;;;;5093431;28;20016;-63
2021/03/31 02:40:36;;;;;;;8.60;6.70;;;24.10;99.90;;;;;;5094036;28;20113;-63
2021/03/31 02:43:06;;;;;;;7.03;6.32;;;24.20;99.80;;;;;;5093551;28;20419;-63
2021/03/31 02:45:35;;;;;;;9.38;6.80;;;23.90;98.60;;;;;;5092054;28;20024;-63
2021/03/31 02:48:05;;;;;;;8.35;6.70;;;23.30;99.70;;;;;;5093315;28;20019;-63
2021/03/31 02:50:34;;;;;;;7.22;6.68;;;23.10;99.90;;;;;;5093672;28;20093;-62
2021/03/31 02:53:02;;;;;;;7.70;6.88;;;23.50;99.90;;;;;;5093560;28;20028;-63
2021/03/31 02:55:29;;;;;;;7.68;6.70;;;23.40;99.90;;;;;;5093229;28;20078;-63
2021/03/31 02:57:58;;;;;;;8.40;7.80;;;23.60;99.90;;;;;;5093251;28;20020;-63
2021/03/31 03:00:26;;;;;;;8.20;7.38;;;23.40;99.90;;;;;;5093301;28;20024;-63
2021/03/31 03:02:53;;;;;;;8.20;7.40;;;23.20;99.90;;;;;;5093165;28;20073;-62
2021/03/31 03:05:22;;;;;;;11.70;7.85;;;22.90;99.70;;;;;;5093235;28;20065;-63
2021/03/31 03:07:50;;;;;;;9.90;7.38;;;22.50;99.50;;;;;;5093422;28;20034;-63
2021/03/31 03:10:18;;;;;;;7.88;7.07;;;22.70;99.60;;;;;;5093067;28;20055;-62
2021/03/31 03:12:57;;;;;;;7.95;7.28;;;23.00;99.90;;;;;;5093550;28;20039;-64
2021/03/31 03:15:26;;;;;;;10.10;9.10;;;23.30;99.90;;;;;;5097562;28;20024;-64
2021/03/31 03:17:54;;;;;;;10.53;9.47;;;23.60;98.20;;;;;;5097233;28;20051;-62
2021/03/31 03:20:23;;;;;;;7.50;6.60;;;23.70;98.50;;;;;;5097105;28;20251;-63
2021/03/31 03:22:53;;;;;;;9.63;6.80;;;24.00;98.40;;;;;;5097071;28;20107;-62
2021/03/31 03:25:26;;;;;;;6.97;6.30;;;24.10;98.70;;;;;;5097598;28;20046;-63
2021/03/31 03:27:54;;;;;;;11.07;9.90;;;24.20;98.60;;;;;;5097624;28;20052;-62
2021/03/31 03:30:22;;;;;;;8.13;7.32;;;24.40;99.10;;;;;;5096854;28;20068;-62
2021/03/31 03:32:52;;;;;;;9.63;7.15;;;24.40;99.50;;;;;;5096949;28;20020;-63
2021/03/31 03:35:25;;;;;;;7.28;6.68;;;24.60;98.00;;;;;;5096966;28;20496;-62
2021/03/31 03:37:53;;;;;;;7.00;6.50;;;24.70;98.50;;;;;;5097123;28;20016;-62
2021/03/31 03:40:25;;;;;;;7.00;6.43;;;24.80;98.50;;;;;;5096607;28;20063;-63
2021/03/31 03:42:53;;;;;;;8.25;6.63;;;25.00;97.10;;;;;;5097013;28;20020;-62
2021/03/31 03:45:25;;;;;;;8.23;6.70;;;24.80;97.00;;;;;;5096693;28;20422;-63
2021/03/31 03:47:54;;;;;;;7.55;6.85;;;24.60;97.10;;;;;;5096727;28;20016;-62
2021/03/31 03:50:22;;;;;;;9.88;7.10;;;24.90;95.50;;;;;;5096858;28;20036;-63
2021/03/31 03:52:52;;;;;;;6.90;6.25;;;24.60;94.70;;;;;;5095161;28;20026;-63
2021/03/31 03:55:21;;;;;;;7.13;6.53;;;24.70;94.70;;;;;;5096751;28;20214;-63
2021/03/31 03:57:49;;;;;;;6.47;6.03;;;24.60;96.10;;;;;;5096451;28;20050;-62
2021/03/31 04:00:20;;;;;;;7.75;6.80;;;24.40;95.30;;;;;;5096583;28;20255;-62
2021/03/31 04:02:55;;;;;;;7.60;6.90;;;24.80;96.20;;;;;;5096424;28;20393;-63
2021/03/31 04:05:23;;;;;;;6.90;6.30;;;25.00;96.10;;;;;;5095683;28;20026;-62
2021/03/31 04:07:52;;;;;;;9.02;6.43;;;24.90;95.00;;;;;;5096234;28;20020;-62
2021/03/31 04:10:22;;;;;;;7.97;6.05;;;24.50;95.30;;;;;;5096236;28;20059;-62
2021/03/31 04:12:51;;;;;;;6.85;6.25;;;24.70;94.40;;;;;;5096266;28;20027;-62
2021/03/31 04:15:20;;;;;;;7.53;6.93;;;24.90;95.20;;;;;;5096222;28;20024;-63
2021/03/31 04:17:49;;;;;;;7.72;7.03;;;24.90;95.50;;;;;;5096388;28;20556;-63
2021/03/31 04:20:26;;;;;;;7.90;7.20;;;24.70;94.90;;;;;;5095952;28;20470;-63
2021/03/31 04:22:54;;;;;;;7.55;6.95;;;24.60;96.20;;;;;;5096081;28;20031;-63
2021/03/31 04:25:23;;;;;;;9.50;8.70;;;24.60;95.70;;;;;;5094778;28;20020;-62
2021/03/31 04:27:52;;;;;;;9.23;8.53;;;24.60;95.00;;;;;;5095940;28;20476;-62
2021/03/31 04:30:22;;;;;;;8.90;8.23;;;24.90;96.20;;;;;;5095753;28;20110;-63
2021/03/31 04:32:53;;;;;;;8.32;7.72;;;24.80;94.70;;;;;;5096611;28;20461;-64
2021/03/31 04:35:20;;;;;;;;;;;25.20;95.70;;;;;;5096816;28;20024;-63
2021/03/31 04:37:47;;;;;;;8.02;7.35;;;25.00;96.00;;;;;;5095705;28;19943;-62
2021/03/31 04:40:18;;;;;;;8.32;7.70;;;24.70;94.40;;;;;;5095514;28;20046;-63
2021/03/31 04:42:45;;;;;;;;;;;24.20;95.90;;;;;;5096442;28;20020;-63
2021/03/31 04:45:13;;;;;;;6.90;6.30;;;24.60;95.40;;;;;;5095828;28;19911;-62
2021/03/31 04:47:41;;;;;;;8.60;7.85;;;24.50;95.40;;;;;;5095394;28;20107;-63
2021/03/31 04:50:11;;;;;;;9.27;8.60;;;24.30;95.40;;;;;;5095518;28;20025;-62
2021/03/31 04:52:39;;;;;;;9.27;8.37;;;24.20;96.50;;;;;;5095285;28;20108;-62
2021/03/31 04:55:07;;;;;;;9.43;8.63;;;24.40;96.20;;;;;;5095323;28;20013;-62
2021/03/31 04:57:34;;;;;;;8.73;7.80;;;24.30;95.20;;;;;;5095247;28;20028;-63
2021/03/31 05:00:02;;;;;;;9.27;8.57;;;24.00;96.90;;;;;;5095316;28;20028;-63
2021/03/31 05:02:29;;;;;;;9.10;8.43;;;24.10;97.20;;;;;;5095509;28;20504;-63
2021/03/31 05:04:56;;;;;;;9.85;9.02;;;24.20;97.20;;;;;;5095233;28;20027;-63
2021/03/31 05:07:24;;;;;;;9.63;9.00;;;24.20;95.10;;;;;;5095009;28;20069;-62
2021/03/31 05:09:51;;;;;;;9.50;8.80;;;24.20;97.20;;;;;;5095059;28;20024;-63
2021/03/31 05:12:18;;;;;;;9.88;9.00;;;24.20;96.50;;;;;;5095022;28;20048;-63
2021/03/31 05:14:46;;;;;;;9.38;8.57;;;24.20;97.80;;;;;;5094974;28;20045;-63
2021/03/31 05:17:13;;;;;;;9.35;8.65;;;24.40;96.60;;;;;;5094895;28;20020;-63
2021/03/31 05:19:40;;;;;;;10.02;9.07;;;24.30;96.60;;;;;;5095010;28;20107;-63
2021/03/31 05:22:08;;;;;;;10.07;8.90;;;23.90;96.10;;;;;;5094863;28;20065;-62
2021/03/31 05:24:35;;;;;;;9.07;8.32;;;23.70;95.80;;;;;;5094662;28;20530;-63
2021/03/31 05:27:03;;;;;;;9.18;8.30;;;23.70;95.90;;;;;;5094611;28;20063;-63
2021/03/31 05:29:31;;;;;;;9.45;8.73;;;23.60;96.20;;;;;;5093225;28;20051;-63
2021/03/31 05:31:59;;;;;;;9.90;9.10;;;24.00;97.20;;;;;;5094672;28;20019;-63
2021/03/31 05:34:26;;;;;;;9.35;8.65;;;24.00;97.00;;;;;;5094519;28;20016;-63
2021/03/31 05:36:54;;;;;;;8.55;6.75;;;24.10;95.80;;;;;;5094269;28;20072;-63
2021/03/31 05:39:21;;;;;;;7.10;6.40;;;23.90;96.20;;;;;;5092988;28;20500;-63
2021/03/31 05:41:49;;;;;;;7.07;6.43;;;24.00;96.40;;;;;;5094452;28;20038;-63
2021/03/31 05:44:16;;;;;;;8.00;5.95;;;23.80;96.00;;;;;;5094432;28;20043;-64
2021/03/31 05:46:44;;;;;;;6.47;6.03;;;23.40;95.70;;;;;;5094521;28;20031;-64
2021/03/31 05:49:13;;;;;;;6.40;5.88;;;23.40;95.50;;;;;;5094231;28;20044;-64
2021/03/31 05:51:40;;;;;;;7.85;6.65;;;23.20;95.90;;;;;;5094293;28;20413;-64
2021/03/31 05:54:08;;;;;;;6.82;6.22;;;23.10;96.40;;;;;;5094067;28;20376;-63
2021/03/31 05:56:36;;;;;;;6.70;6.10;;;23.10;96.90;;;;;;5094021;28;20024;-63
2021/03/31 05:59:05;;;;;;;7.00;6.35;;;23.10;96.60;;;;;;5094177;28;20032;-63
2021/03/31 06:01:33;;;;;;;6.50;5.90;;;23.10;96.70;;;;;;5094214;28;20050;-64
2021/03/31 06:04:02;;;;;;;6.35;5.85;;;22.90;96.00;;;;;;5094254;28;20028;-64
2021/03/31 06:06:31;;;;;;;6.68;6.18;;;22.80;95.10;;;;;;5094021;28;20028;-63
2021/03/31 06:08:58;;;;;;;7.03;6.40;;;22.70;95.50;;;;;;5093865;28;20024;-63
2021/03/31 06:11:26;;;;;;;7.32;6.70;;;22.60;96.90;;;;;;5093924;28;20016;-64
2021/03/31 06:13:58;;;;;;;7.00;6.35;;;22.40;96.50;;;;;;5094442;28;20403;-65
2021/03/31 06:16:33;;;;;;;6.82;6.18;;;22.40;96.90;;;;;;5093614;28;20027;-63
2021/03/31 06:19:20;;;;;;;6.97;6.30;;;22.30;96.00;;;;;;5093700;28;20050;-64
2021/03/31 06:22:06;;;;;;;6.97;6.28;;;22.30;96.00;;;;;;5092224;28;20024;-63
2021/03/31 06:24:42;;;;;;;6.03;5.65;;;22.20;95.60;;;;;;5093273;28;20031;-63
2021/03/31 06:27:10;;;;;;;6.30;5.80;;;22.30;95.70;;;;;;5093314;28;20032;-64
2021/03/31 06:30:02;;;;;;;6.45;5.88;;;22.20;95.40;;;;;;5093397;28;20028;-64
2021/03/31 06:32:36;;;;;;;7.05;6.43;;;22.20;95.90;;;;;;5093640;28;20361;-63
2021/03/31 06:35:06;;;;;;;6.35;5.90;;;22.10;95.30;;;;;;5093226;28;20542;-62
2021/03/31 06:37:37;;;;;;;6.22;5.68;;;22.20;97.80;;;;;;5093322;28;20110;-62
2021/03/31 06:40:09;;;;;;;6.40;5.90;;;22.30;95.30;;;;;;5093024;28;20048;-61
2021/03/31 06:42:42;;;;;;;6.20;5.70;;;22.40;97.00;;;;;;5093411;28;20028;-62
2021/03/31 06:45:21;;;;;;;5.95;5.65;;;22.30;96.10;;;;;;5093208;28;20151;-62
2021/03/31 06:48:00;;;;;;;6.38;5.97;;;22.10;94.20;;;;;;5092688;28;20438;-61
2021/03/31 06:50:29;;;;;;;6.07;5.60;;;22.10;94.30;;;;;;5093660;28;20024;-63
2021/03/31 06:52:57;;;;;;;5.97;5.40;;;21.90;95.80;;;;;;5093097;28;20172;-63
2021/03/31 06:55:26;;;;;;;6.60;6.10;;;21.80;96.90;;;;;;5092036;28;20024;-65
2021/03/31 06:57:58;;;;;;;6.53;5.93;;;22.00;95.90;;;;;;5093625;28;20032;-63
2021/03/31 07:00:28;;;;;;;6.70;6.20;;;21.90;96.20;;;;;;5093461;28;20111;-64
2021/03/31 07:03:00;;;;;;;6.43;6.00;;;21.90;96.70;;;;;;5092122;28;20045;-62
2021/03/31 07:05:35;;;;;;;6.38;5.75;;;21.70;96.60;;;;;;5093039;28;20392;-63
2021/03/31 07:08:03;;;;;;;6.03;5.53;;;21.60;97.60;;;;;;5093253;28;20070;-64
2021/03/31 07:10:41;;;;;;;5.95;5.55;;;21.70;97.20;;;;;;5093054;28;20040;-63
2021/03/31 07:13:09;;;;;;;6.22;5.53;;;21.50;98.00;;;;;;5093075;28;20024;-64
2021/03/31 07:15:37;;;;;;;5.43;5.00;;;21.50;97.90;;;;;;5093045;28;20042;-63
2021/03/31 07:18:05;;;;;;;5.82;5.43;;;21.60;98.20;;;;;;5093065;28;20024;-63
2021/03/31 07:20:33;;;;;;;5.95;5.18;;;21.70;99.70;;;;;;5093073;28;20107;-63
2021/03/31 07:23:03;;;;;;;6.22;5.68;;;21.60;98.60;;;;;;5093008;28;20020;-62
2021/03/31 07:25:30;;;;;;;6.38;5.78;;;21.40;99.60;;;;;;5093097;28;20017;-63
2021/03/31 07:27:58;;;;;;;6.78;5.70;;;21.40;99.90;;;;;;5092974;28;20031;-63
2021/03/31 07:30:27;;;;;;;6.88;6.20;;;21.30;99.90;;;;;;5092950;28;20579;-63
2021/03/31 07:33:15;;;;;;;8.07;6.30;;;21.20;99.60;;;;;;5093482;28;20046;-63
2021/03/31 07:35:43;;;;;;;6.40;5.75;;;21.20;99.90;;;;;;5093363;28;20354;-65
2021/03/31 07:38:14;;;;;;;6.57;5.95;;;21.20;99.90;;;;;;5092944;28;20488;-63
2021/03/31 07:40:42;;;;;;;;;;;21.10;99.90;;;;;;5093292;28;20096;-64
2021/03/31 07:43:26;;;;;;;9.43;6.80;;;21.10;99.90;;;;;;5091596;28;19908;-63
2021/03/31 07:46:01;;;;;;;6.93;6.22;;;20.90;99.90;;;;;;5091351;28;20035;-64
2021/03/31 07:48:30;;;;;;;6.68;6.18;;;20.90;99.90;;;;;;5092877;28;20016;-65
2021/03/31 07:51:13;;;;;;;8.07;6.82;;;21.00;99.90;;;;;;5092782;28;20027;-64
2021/03/31 07:53:45;;;;;;;7.55;6.85;;;20.90;99.90;;;;;;5091374;28;20097;-62
2021/03/31 07:56:18;;;;;;;6.85;6.35;;;20.80;99.90;;;;;;5091028;28;20480;-64
2021/03/31 07:59:11;;;;;;;7.35;6.65;;;20.70;99.90;;;;;;5092927;28;20032;-66
2021/03/31 08:01:47;;;;;;;7.30;6.60;;;20.50;99.90;;;;;;5095107;28;20028;-64
2021/03/31 08:04:16;;;;;;;7.30;6.78;;;20.20;99.90;;;;;;5096946;28;20530;-64
2021/03/31 08:06:45;;;;;;;7.18;6.68;;;20.00;99.90;;;;;;5096169;28;20039;-64
2021/03/31 08:09:21;;;;;;;7.03;6.43;;;19.90;99.90;;;;;;5096173;28;20035;-64
2021/03/31 08:11:57;;;;;;;8.20;7.00;;;19.80;99.90;;;;;;5096716;28;20031;-63
2021/03/31 08:14:27;;;;;;;7.78;6.22;;;19.70;99.90;;;;;;5096005;28;20469;-64
2021/03/31 08:16:57;;;;;;;7.07;6.45;;;19.80;99.90;;;;;;5094690;28;20035;-63
2021/03/31 08:19:30;;;;;;;6.90;6.40;;;19.90;99.90;;;;;;5096120;28;20036;-64
2021/03/31 08:22:20;;;;;;;7.32;6.72;;;19.80;99.90;;;;;;5094991;28;20020;-64
2021/03/31 08:24:51;;;;;;;6.90;6.28;;;19.80;99.90;;;;;;5094944;28;20398;-63
2021/03/31 08:27:19;;;;;;;6.78;6.18;;;19.90;99.90;;;;;;5096156;28;20054;-64
2021/03/31 08:29:54;;;;;;;6.35;6.00;;;20.00;99.90;;;;;;5095717;28;20476;-66
2021/03/31 08:32:23;;;;;;;6.75;6.20;;;20.00;99.90;;;;;;5095903;28;20385;-63
2021/03/31 08:34:50;;;;;;;7.07;6.38;;;20.00;99.90;;;;;;5096048;28;20027;-63
2021/03/31 08:37:25;;;;;;;7.00;6.50;;;20.00;99.90;;;;;;5096724;28;20156;-64
2021/03/31 08:39:53;;;;;;;7.88;7.20;;;19.90;99.90;;;;;;5095464;28;20409;-65
2021/03/31 08:42:20;;;;;;;8.00;7.20;;;19.80;99.90;;;;;;5094316;28;20054;-64
2021/03/31 08:44:53;;;;;;;7.43;6.88;;;19.70;99.90;;;;;;5096142;28;20023;-65
2021/03/31 08:47:23;;;;;;;10.82;7.32;;;19.60;99.90;;;;;;5095379;28;20032;-64
2021/03/31 08:50:08;;;;;;;8.10;7.30;;;19.70;99.90;;;;;;5095337;28;20028;-65
2021/03/31 08:52:38;;;;;;;12.38;7.10;;;19.60;99.90;;;;;;5095618;28;20024;-63
2021/03/31 08:55:11;;;;;;;7.25;6.63;;;19.60;99.90;;;;;;5095265;28;20412;-63
2021/03/31 08:57:39;;;;;;;7.80;7.10;;;19.60;99.90;;;;;;5095264;28;20020;-63
2021/03/31 09:00:09;;;;;;;7.72;6.88;;;19.50;99.90;;;;;;5095199;28;20492;-64
2021/03/31 09:02:41;;;;;;;7.90;7.10;;;19.50;99.90;;;;;;5095091;28;20103;-64
2021/03/31 09:05:14;;;;;;;7.65;6.95;;;19.60;99.90;;;;;;5095179;28;20044;-64
2021/03/31 09:07:41;;;;;;;7.63;6.90;;;19.70;99.90;;;;;;5094799;28;20028;-64
2021/03/31 09:10:13;;;;;;;8.82;7.72;;;19.60;99.90;;;;;;5095120;28;20066;-64
2021/03/31 09:12:41;;;;;;;8.60;7.78;;;19.60;99.90;;;;;;5094423;28;20028;-63
2021/03/31 09:15:08;;;;;;;9.02;8.10;;;19.50;99.90;;;;;;5093567;28;20103;-64
2021/03/31 09:17:36;;;;;;;9.07;8.27;;;19.50;99.90;;;;;;5094916;28;20032;-64
2021/03/31 09:20:09;;;;;;;9.02;8.18;;;19.40;99.90;;;;;;5094982;28;20497;-65
2021/03/31 09:22:37;;;;;;;10.20;9.20;;;19.40;99.90;;;;;;5094955;28;20020;-63
2021/03/31 09:25:09;;;;;;;12.18;9.60;;;19.50;99.90;;;;;;5094935;28;20024;-63
2021/03/31 09:27:37;;;;;;;11.23;8.80;;;19.50;99.90;;;;;;5094929;28;20028;-63
2021/03/31 09:30:14;;;;;;;13.23;8.75;;;19.50;99.90;;;;;;5094537;28;20391;-63
2021/03/31 09:32:49;;;;;;;9.73;8.82;;;19.50;99.90;;;;;;5094918;28;20407;-63
2021/03/31 09:35:19;;;;;;;8.52;7.80;;;19.50;99.90;;;;;;5094457;28;20027;-64
2021/03/31 09:37:49;;;;;;;8.35;7.60;;;19.40;99.90;;;;;;5094533;28;20020;-65
2021/03/31 09:40:37;;;;;;;;;;;19.50;99.90;;;;;;5094705;28;20048;-64
2021/03/31 09:43:05;;;;;;;9.13;8.32;;;19.50;99.90;;;;;;5094603;28;19904;-63
2021/03/31 09:45:34;;;;;;;7.72;7.10;;;19.40;99.90;;;;;;5094401;28;20016;-64
2021/03/31 09:48:03;;;;;;;8.40;7.60;;;19.40;99.90;;;;;;5094410;28;20016;-63
2021/03/31 09:50:35;;;;;;;9.00;8.20;;;19.40;99.90;;;;;;5094342;28;20020;-63
2021/03/31 09:53:05;;;;;;;9.63;8.57;;;19.40;99.90;;;;;;5094411;28;20070;-64
2021/03/31 09:55:35;;;;;;;10.30;8.57;;;19.50;99.90;;;;;;5094134;28;20035;-63
2021/03/31 09:58:03;;;;;;;8.73;8.10;;;19.50;99.90;;;;;;5094416;28;20042;-63
2021/03/31 10:00:37;;;;;;;13.68;9.05;;;19.50;99.90;;;;;;5094035;28;20016;-63
2021/03/31 10:03:06;;;;;;;9.45;8.45;;;19.50;99.90;;;;;;5094069;28;20031;-63
2021/03/31 10:05:33;;;;;;;9.20;8.38;;;19.60;99.90;;;;;;5093872;28;20069;-64
2021/03/31 10:08:10;;;;;;;9.40;8.52;;;19.60;99.90;;;;;;5093754;28;20051;-63
2021/03/31 10:10:42;;;;;;;10.60;8.60;;;19.60;99.90;;;;;;5093886;28;20024;-63
2021/03/31 10:13:12;;;;;;;10.10;8.48;;;19.60;99.90;;;;;;5094002;28;20028;-64
2021/03/31 10:15:57;;;;;;;10.20;9.10;;;19.60;99.90;;;;;;5094010;28;20396;-62
2021/03/31 10:18:27;;;;;;;9.13;8.43;;;19.70;99.90;;;;;;5093850;28;20024;-64
2021/03/31 10:20:59;;;;;;;8.95;8.25;;;19.70;99.90;;;;;;5094509;28;20024;-64
2021/03/31 10:23:34;;;;;;;9.85;8.48;;;19.70;99.90;;;;;;5093197;28;20062;-64
2021/03/31 10:26:19;;;;;;;11.43;8.15;;;19.70;99.90;;;;;;5093671;28;20028;-64
2021/03/31 10:28:47;;;;;;;8.73;7.85;;;19.70;99.90;;;;;;5093641;28;20504;-63
2021/03/31 10:31:44;;;;;;;8.55;7.78;;;19.70;99.90;;;;;;5093460;28;20043;-63
2021/03/31 10:34:13;;;;;;;9.75;8.63;;;19.70;99.90;;;;;;5092105;28;20552;-64
2021/03/31 10:51:03;;;;;;;11.70;9.55;;;19.70;99.90;;;;;;5093434;28;20024;-64
2021/03/31 10:53:35;;;;;;;9.55;8.75;;;19.70;99.90;;;;;;5093351;28;20078;-64
2021/03/31 10:56:04;;;;;;;10.32;8.70;;;19.70;99.90;;;;;;5093540;28;20063;-63
2021/03/31 10:58:31;;;;;;;9.48;8.63;;;19.70;99.90;;;;;;5093202;28;20107;-64
2021/03/31 11:00:59;;;;;;;9.00;8.15;;;19.70;99.90;;;;;;5093337;28;20069;-65
2021/03/31 11:03:26;;;;;;;8.63;8.00;;;19.70;99.90;;;;;;5093193;28;20395;-63
2021/03/31 11:05:55;;;;;;;14.10;12.80;;;19.60;99.90;;;;;;5093014;28;20107;-64
2021/03/31 11:08:23;;;;;;;18.60;17.30;;;19.40;99.90;;;;;;5093245;28;20488;-64
2021/03/31 11:10:51;;;;;;;43.10;40.60;;;19.20;99.90;;;;;;5093442;28;20023;-64
2021/03/31 11:13:19;;;;;;;47.38;44.88;;;18.70;99.90;;;;;;5093829;28;20068;-60
2021/03/31 11:15:46;;;;;;;55.97;52.38;;;18.70;99.90;;;;;;5093167;28;20020;-64
2021/03/31 11:21:05;;;;;;;62.28;58.45;;;18.60;99.90;;;;;;5093032;28;20017;-64
2021/03/31 11:26:17;;;;;;;71.25;66.78;;;18.40;99.90;;;;;;5093345;28;20027;-64
2021/03/31 11:28:45;;;;;;;70.82;66.15;;;18.40;99.90;;;;;;5093877;28;20024;-64
2021/03/31 11:31:12;;;;;;;76.45;71.63;;;18.40;99.90;;;;;;5092855;28;20171;-64
2021/03/31 11:33:40;;;;;;;80.78;75.70;;;18.30;99.90;;;;;;5093215;28;20028;-64
2021/03/31 11:36:07;;;;;;;88.75;83.25;;;18.20;99.90;;;;;;5097200;28;20031;-63
2021/03/31 11:38:35;;;;;;;89.70;84.15;;;18.10;99.90;;;;;;5096550;28;20026;-64
2021/03/31 11:41:04;;;;;;;90.22;84.50;;;18.10;99.90;;;;;;5096748;28;20028;-65
2021/03/31 11:43:31;;;;;;;88.18;82.40;;;18.00;99.90;;;;;;5097095;28;20049;-64
2021/03/31 11:45:59;;;;;;;90.15;84.07;;;18.00;99.90;;;;;;5095298;28;20473;-64
2021/03/31 11:48:26;;;;;;;87.85;82.63;;;18.00;99.90;;;;;;5096698;28;20097;-64
2021/03/31 11:50:53;;;;;;;94.28;88.55;;;18.00;99.90;;;;;;5096624;28;20042;-64
2021/03/31 11:53:21;;;;;;;94.90;89.30;;;17.90;99.90;;;;;;5096640;28;20073;-64
2021/03/31 11:55:48;;;;;;;107.47;100.85;;;17.90;99.90;;;;;;5096382;28;20024;-65
2021/03/31 11:58:15;;;;;;;105.22;98.75;;;17.80;99.90;;;;;;5096482;28;20012;-66
2021/03/31 12:00:43;;;;;;;107.10;100.57;;;17.80;99.90;;;;;;5096150;28;20464;-65
2021/03/31 12:03:10;;;;;;;119.50;112.70;;;17.80;99.90;;;;;;5094965;28;20020;-65
2021/03/31 12:05:37;;;;;;;112.45;105.78;;;17.60;99.90;;;;;;5096269;28;20028;-64
2021/03/31 12:08:05;;;;;;;109.43;102.75;;;17.60;99.90;;;;;;5096407;28;20081;-66
2021/03/31 12:10:32;;;;;;;109.93;103.28;;;17.30;99.90;;;;;;5096143;28;20054;-65
2021/03/31 12:13:00;;;;;;;105.93;99.60;;;17.30;99.90;;;;;;5096187;28;20032;-65
2021/03/31 12:15:27;;;;;;;109.10;102.57;;;17.20;99.90;;;;;;5096042;28;20540;-65
2021/03/31 12:17:55;;;;;;;109.97;103.53;;;17.20;99.90;;;;;;5096403;28;20016;-64
2021/03/31 12:20:22;;;;;;;107.50;100.75;;;17.20;99.90;;;;;;5095978;28;20073;-65
2021/03/31 12:22:50;;;;;;;110.32;103.53;;;17.10;99.90;;;;;;5096772;28;20089;-65
2021/03/31 12:25:18;;;;;;;109.85;103.22;;;17.10;99.90;;;;;;5096253;28;20052;-65
2021/03/31 12:27:47;;;;;;;112.88;105.93;;;17.10;99.90;;;;;;5095928;28;20028;-65
2021/03/31 12:30:15;;;;;;;113.13;105.95;;;17.10;99.90;;;;;;5096099;28;20028;-65
2021/03/31 12:32:43;;;;;;;112.13;105.15;;;17.00;99.90;;;;;;5095886;28;20021;-64
2021/03/31 12:35:11;;;;;;;111.05;103.63;;;16.90;99.90;;;;;;5095719;28;20384;-65
2021/03/31 12:37:38;;;;;;;105.30;98.40;;;16.90;99.90;;;;;;5095718;28;20621;-65
2021/03/31 12:40:07;;;;;;;111.90;104.72;;;16.80;99.90;;;;;;5095578;28;20055;-65
2021/03/31 12:42:35;;;;;;;113.05;105.75;;;16.90;99.90;;;;;;5095717;28;20039;-66
2021/03/31 12:45:03;;;;;;;108.43;101.55;;;16.90;99.90;;;;;;5095217;28;20244;-65
2021/03/31 12:47:31;;;;;;;108.88;101.85;;;16.80;99.90;;;;;;5094896;28;20017;-65
2021/03/31 12:49:58;;;;;;;110.30;103.15;;;16.80;99.90;;;;;;5095873;28;20526;-64
2021/03/31 12:52:30;;;;;;;111.68;103.75;;;16.80;99.90;;;;;;5095546;28;20073;-65
2021/03/31 12:55:04;;;;;;;113.25;105.45;;;16.80;99.90;;;;;;5095431;28;20362;-65
2021/03/31 12:57:31;;;;;;;115.88;107.82;;;16.80;99.90;;;;;;5095391;28;20062;-66
2021/03/31 13:00:03;;;;;;;112.75;104.65;;;16.70;99.90;;;;;;5095631;28;20106;-66
2021/03/31 13:02:31;;;;;;;114.00;106.45;;;16.70;99.90;;;;;;5095246;28;20365;-67
2021/03/31 13:04:58;;;;;;;116.05;108.07;;;16.60;99.90;;;;;;5095343;28;20027;-65
2021/03/31 13:07:26;;;;;;;117.68;109.70;;;16.60;99.90;;;;;;5095217;28;20027;-64
2021/03/31 13:09:54;;;;;;;118.93;111.20;;;16.60;99.90;;;;;;5095101;28;20550;-66
2021/03/31 13:15:30;;;;;;;120.60;112.70;;;16.60;99.90;;;;;;5080411;28;20426;-65
2021/03/31 13:18:10;;;;;;;120.65;112.20;;;16.50;99.90;;;;;;5094950;28;20052;-64